Felix-Klein-Gymnasium, Gttingen, 150m NN
Wetterdaten: aktuell Donnerstag, 19.09.2019 15:00
Datum Zeit Temp. A. Feuchte A. Luftdruck Regen Wind Richtung Richtung Sonnenschein Taupunkt Windchill Windben
19.09.2019 15:00 14,6 C 47 % 1027,4 hPa 0,0 mm 8,5 km/h (2 Bft) SO 124 0 min 3,4 C 14,6 C 20,9 km/h (4 Bft)
19.09.2019 14:45 14,9 C 46 % 1027,5 hPa 0,0 mm 9,7 km/h (2 Bft) S 185 0 min 3,4 C 14,9 C 20,9 km/h (4 Bft)
19.09.2019 14:30 13,8 C 52 % 1027,5 hPa 0,0 mm 0,0 km/h (0 Bft) SO 131 15 min 4,1 C 13,8 C 0,0 km/h (0 Bft)
19.09.2019 14:15 13,8 C 52 % 1027,5 hPa 0,0 mm 0,0 km/h (0 Bft) SO 131 15 min 4,1 C 13,8 C 0,0 km/h (0 Bft)
19.09.2019 14:00 13,8 C 52 % 1027,4 hPa 0,0 mm 1,0 km/h (0 Bft) SO 131 15 min 4,1 C 13,8 C 11,3 km/h (2 Bft)
19.09.2019 13:45 13,8 C 53 % 1027,7 hPa 0,0 mm 7,9 km/h (2 Bft) SO 130 0 min 4,4 C 13,8 C 20,9 km/h (4 Bft)
19.09.2019 13:30 14,3 C 54 % 1027,6 hPa 0,0 mm 4,9 km/h (1 Bft) SO 144 15 min 5,1 C 14,3 C 12,9 km/h (3 Bft)
19.09.2019 13:15 13,8 C 54 % 1027,7 hPa 0,0 mm 11,4 km/h (2 Bft) O-SO 113 15 min 4,7 C 13,8 C 25,7 km/h (4 Bft)
19.09.2019 13:00 14,1 C 51 % 1027,7 hPa 0,0 mm 8,5 km/h (2 Bft) SO 126 15 min 4,1 C 14,1 C 19,3 km/h (3 Bft)
19.09.2019 12:45 13,6 C 57 % 1027,8 hPa 0,0 mm 5,8 km/h (2 Bft) O-SO 111 0 min 5,2 C 13,6 C 17,7 km/h (3 Bft)
19.09.2019 12:30 13,3 C 57 % 1027,7 hPa 0,0 mm 4,5 km/h (1 Bft) S-SO 148 15 min 5,0 C 13,3 C 16,1 km/h (3 Bft)
19.09.2019 12:15 13,1 C 58 % 1027,6 hPa 0,0 mm 9,8 km/h (2 Bft) SO 138 0 min 5,0 C 13,1 C 20,9 km/h (4 Bft)
19.09.2019 12:00 13,5 C 59 % 1027,7 hPa 0,0 mm 4,8 km/h (1 Bft) S-SO 163 15 min 5,6 C 13,5 C 12,9 km/h (3 Bft)
19.09.2019 11:45 13,4 C 65 % 1027,7 hPa 0,0 mm 2,5 km/h (1 Bft) O-SO 106 15 min 7,0 C 13,4 C 14,5 km/h (3 Bft)
19.09.2019 11:30 12,8 C 69 % 1027,8 hPa 0,0 mm 0,0 km/h (0 Bft) W 269 15 min 7,3 C 12,8 C 0,0 km/h (0 Bft)
19.09.2019 11:15 12,8 C 69 % 1027,8 hPa 0,0 mm 0,0 km/h (0 Bft) W 269 15 min 7,3 C 12,8 C 0,0 km/h (0 Bft)
19.09.2019 11:00 12,8 C 69 % 1027,9 hPa 0,0 mm 0,1 km/h (0 Bft) W 269 15 min 7,3 C 12,8 C 3,2 km/h (1 Bft)
19.09.2019 10:45 12,1 C 71 % 1027,8 hPa 0,0 mm 0,2 km/h (0 Bft) N 355 15 min 7,0 C 12,1 C 3,2 km/h (1 Bft)
19.09.2019 10:30 11,1 C 74 % 1027,7 hPa 0,0 mm 0,0 km/h (0 Bft) W 278 15 min 6,6 C 11,1 C 0,0 km/h (0 Bft)
19.09.2019 10:15 10,8 C 76 % 1027,7 hPa 0,0 mm 0,0 km/h (0 Bft) W 279 15 min 6,7 C 10,8 C 1,6 km/h (1 Bft)
19.09.2019 10:00 9,9 C 80 % 1027,7 hPa 0,0 mm 0,0 km/h (0 Bft) NW 313 15 min 6,6 C 9,9 C 1,6 km/h (1 Bft)
19.09.2019 09:45 9,2 C 83 % 1027,6 hPa 0,0 mm 0,0 km/h (0 Bft) NW 312 15 min 6,5 C 9,2 C 1,6 km/h (1 Bft)
19.09.2019 09:30 8,1 C 87 % 1027,7 hPa 0,0 mm 0,0 km/h (0 Bft) NW 321 15 min 6,1 C 8,1 C 0,0 km/h (0 Bft)
19.09.2019 09:15 7,1 C 90 % 1027,5 hPa 0,0 mm 0,1 km/h (0 Bft) NW 321 15 min 5,6 C 7,1 C 3,2 km/h (1 Bft)
19.09.2019 09:00 6,1 C 92 % 1027,3 hPa 0,0 mm 0,0 km/h (0 Bft) NW 313 15 min 4,9 C 6,1 C 1,6 km/h (1 Bft)
19.09.2019 08:45 5,3 C 93 % 1027,2 hPa 0,0 mm 0,0 km/h (0 Bft) W-NW 298 0 min 4,3 C 5,3 C 0,0 km/h (0 Bft)
19.09.2019 08:30 4,7 C 93 % 1027,0 hPa 0,0 mm 0,0 km/h (0 Bft) W-NW 298 0 min 3,7 C 4,7 C 0,0 km/h (0 Bft)
19.09.2019 08:15 4,3 C 94 % 1026,9 hPa 0,0 mm 0,0 km/h (0 Bft) W-NW 292 15 min 3,4 C 4,3 C 0,0 km/h (0 Bft)
19.09.2019 08:00 3,9 C 93 % 1026,7 hPa 0,0 mm 0,0 km/h (0 Bft) NW 309 0 min 2,9 C 3,9 C 0,0 km/h (0 Bft)
19.09.2019 07:45 3,7 C 93 % 1026,5 hPa 0,0 mm 0,0 km/h (0 Bft) NW 309 0 min 2,7 C 3,7 C 0,0 km/h (0 Bft)
19.09.2019 07:30 3,7 C 93 % 1026,5 hPa 0,0 mm 0,0 km/h (0 Bft) W-NW 300 0 min 2,7 C 3,7 C 0,0 km/h (0 Bft)
19.09.2019 07:15 3,6 C 93 % 1026,3 hPa 0,0 mm 0,0 km/h (0 Bft) W-NW 300 0 min 2,6 C 3,6 C 0,0 km/h (0 Bft)
19.09.2019 07:00 3,4 C 92 % 1026,1 hPa 0,0 mm 0,0 km/h (0 Bft) W-NW 300 0 min 2,2 C 3,4 C 0,0 km/h (0 Bft)
19.09.2019 06:45 3,4 C 92 % 1025,9 hPa 0,0 mm 0,0 km/h (0 Bft) W-NW 300 0 min 2,2 C 3,4 C 0,0 km/h (0 Bft)
19.09.2019 06:30 3,7 C 92 % 1025,9 hPa 0,0 mm 0,0 km/h (0 Bft) W-NW 300 0 min 2,5 C 3,7 C 0,0 km/h (0 Bft)
19.09.2019 06:15 3,9 C 91 % 1026,0 hPa 0,0 mm 0,0 km/h (0 Bft) W-NW 300 0 min 2,6 C 3,9 C 0,0 km/h (0 Bft)
19.09.2019 06:00 4,1 C 91 % 1026,0 hPa 0,0 mm 0,0 km/h (0 Bft) W-NW 300 0 min 2,8 C 4,1 C 0,0 km/h (0 Bft)
19.09.2019 05:45 4,3 C 91 % 1025,9 hPa 0,0 mm 0,0 km/h (0 Bft) W-NW 300 0 min 3,0 C 4,3 C 0,0 km/h (0 Bft)
19.09.2019 05:30 4,4 C 92 % 1025,7 hPa 0,0 mm 0,0 km/h (0 Bft) W-NW 300 0 min 3,2 C 4,4 C 0,0 km/h (0 Bft)
19.09.2019 05:15 4,4 C 91 % 1025,8 hPa 0,0 mm 0,0 km/h (0 Bft) W-NW 300 0 min 3,1 C 4,4 C 0,0 km/h (0 Bft)
19.09.2019 05:00 4,6 C 90 % 1025,6 hPa 0,0 mm 0,0 km/h (0 Bft) W-NW 300 0 min 3,1 C 4,6 C 0,0 km/h (0 Bft)
19.09.2019 04:45 4,8 C 89 % 1025,6 hPa 0,0 mm 0,0 km/h (0 Bft) W-NW 300 0 min 3,1 C 4,8 C 0,0 km/h (0 Bft)
19.09.2019 04:30 5,2 C 89 % 1025,6 hPa 0,0 mm 0,0 km/h (0 Bft) W-NW 300 0 min 3,5 C 5,2 C 0,0 km/h (0 Bft)
19.09.2019 04:15 5,6 C 89 % 1025,4 hPa 0,0 mm 0,0 km/h (0 Bft) W-NW 300 0 min 3,9 C 5,6 C 0,0 km/h (0 Bft)
19.09.2019 04:00 5,9 C 90 % 1025,4 hPa 0,0 mm 0,0 km/h (0 Bft) W-NW 300 0 min 4,4 C 5,9 C 0,0 km/h (0 Bft)
19.09.2019 03:45 6,0 C 90 % 1025,4 hPa 0,0 mm 0,0 km/h (0 Bft) W-NW 300 0 min 4,5 C 6,0 C 0,0 km/h (0 Bft)
19.09.2019 03:30 5,9 C 89 % 1025,4 hPa 0,0 mm 0,0 km/h (0 Bft) W-NW 300 0 min 4,2 C 5,9 C 0,0 km/h (0 Bft)
19.09.2019 03:15 5,8 C 89 % 1025,3 hPa 0,0 mm 0,0 km/h (0 Bft) W-NW 300 0 min 4,1 C 5,8 C 0,0 km/h (0 Bft)
19.09.2019 03:00 5,8 C 88 % 1025,5 hPa 0,0 mm 0,0 km/h (0 Bft) W-NW 300 0 min 4,0 C 5,8 C 0,0 km/h (0 Bft)
19.09.2019 02:45 6,1 C 87 % 1025,4 hPa 0,0 mm 0,0 km/h (0 Bft) W-NW 300 0 min 4,1 C 6,1 C 0,0 km/h (0 Bft)
19.09.2019 02:30 6,6 C 86 % 1025,5 hPa 0,0 mm 0,0 km/h (0 Bft) S-SW 208 0 min 4,4 C 6,6 C 0,0 km/h (0 Bft)
19.09.2019 02:15 7,0 C 85 % 1025,5 hPa 0,0 mm 0,0 km/h (0 Bft) S 188 0 min 4,7 C 7,0 C 0,0 km/h (0 Bft)
19.09.2019 02:00 7,6 C 85 % 1025,4 hPa 0,0 mm 0,0 km/h (0 Bft) SO 146 0 min 5,2 C 7,6 C 0,0 km/h (0 Bft)
19.09.2019 01:45 7,7 C 85 % 1025,4 hPa 0,0 mm 0,0 km/h (0 Bft) SO 146 0 min 5,3 C 7,7 C 0,0 km/h (0 Bft)
19.09.2019 01:30 8,0 C 84 % 1025,3 hPa 0,0 mm 0,0 km/h (0 Bft) SO 146 0 min 5,5 C 8,0 C 0,0 km/h (0 Bft)
19.09.2019 01:15 8,3 C 82 % 1025,3 hPa 0,0 mm 0,0 km/h (0 Bft) SO 144 0 min 5,4 C 8,3 C 0,0 km/h (0 Bft)
19.09.2019 01:00 8,6 C 82 % 1025,2 hPa 0,0 mm 0,0 km/h (0 Bft) S-SO 147 0 min 5,7 C 8,6 C 0,0 km/h (0 Bft)
19.09.2019 00:45 8,9 C 81 % 1025,1 hPa 0,0 mm 0,0 km/h (0 Bft) S-SO 147 0 min 5,8 C 8,9 C 0,0 km/h (0 Bft)
19.09.2019 00:30 9,1 C 81 % 1025,0 hPa 0,0 mm 0,0 km/h (0 Bft) SO 146 0 min 6,0 C 9,1 C 0,0 km/h (0 Bft)
19.09.2019 00:15 9,2 C 81 % 1024,9 hPa 0,0 mm 0,0 km/h (0 Bft) SO 141 0 min 6,1 C 9,2 C 0,0 km/h (0 Bft)
19.09.2019 00:00 9,4 C 79 % 1024,9 hPa 0,0 mm 0,0 km/h (0 Bft) SO 141 0 min 5,9 C 9,4 C 0,0 km/h (0 Bft)
18.09.2019 23:45 9,6 C 79 % 1024,8 hPa 0,0 mm 0,0 km/h (0 Bft) N 0 0 min 6,1 C 9,6 C 0,0 km/h (0 Bft)
18.09.2019 23:30 9,8 C 77 % 1024,7 hPa 0,0 mm 0,0 km/h (0 Bft) N 0 0 min 6,0 C 9,8 C 0,0 km/h (0 Bft)
18.09.2019 23:15 10,1 C 76 % 1024,6 hPa 0,0 mm 0,0 km/h (0 Bft) N 0 0 min 6,1 C 10,1 C 0,0 km/h (0 Bft)
18.09.2019 23:00 10,4 C 75 % 1024,6 hPa 0,0 mm 0,0 km/h (0 Bft) SO 141 0 min 6,2 C 10,4 C 0,0 km/h (0 Bft)
18.09.2019 22:45 10,7 C 74 % 1024,6 hPa 0,0 mm 0,0 km/h (0 Bft) SO 141 0 min 6,3 C 10,7 C 0,0 km/h (0 Bft)
18.09.2019 22:30 10,9 C 73 % 1024,4 hPa 0,0 mm 0,0 km/h (0 Bft) SO 141 0 min 6,3 C 10,9 C 0,0 km/h (0 Bft)
18.09.2019 22:15 11,2 C 71 % 1024,3 hPa 0,0 mm 0,0 km/h (0 Bft) SO 141 0 min 6,1 C 11,2 C 0,0 km/h (0 Bft)
18.09.2019 22:00 11,4 C 71 % 1024,1 hPa 0,0 mm 0,0 km/h (0 Bft) SO 141 0 min 6,3 C 11,4 C 1,6 km/h (1 Bft)
18.09.2019 21:45 11,7 C 70 % 1024,2 hPa 0,0 mm 0,0 km/h (0 Bft) O-SO 110 0 min 6,4 C 11,7 C 0,0 km/h (0 Bft)
18.09.2019 21:30 12,0 C 68 % 1024,0 hPa 0,0 mm 1,5 km/h (1 Bft) O-SO 105 0 min 6,3 C 12,0 C 12,9 km/h (3 Bft)
18.09.2019 21:15 12,2 C 68 % 1023,9 hPa 0,0 mm 4,8 km/h (1 Bft) SO 128 0 min 6,5 C 12,2 C 16,1 km/h (3 Bft)
18.09.2019 21:00 12,4 C 69 % 1023,9 hPa 0,0 mm 1,8 km/h (1 Bft) O-SO 119 0 min 6,9 C 12,4 C 8,0 km/h (2 Bft)
18.09.2019 20:45 12,5 C 68 % 1023,7 hPa 0,0 mm 0,1 km/h (0 Bft) SO 137 0 min 6,8 C 12,5 C 4,8 km/h (1 Bft)
18.09.2019 20:30 12,6 C 68 % 1023,6 hPa 0,0 mm 0,2 km/h (0 Bft) O-SO 118 0 min 6,9 C 12,6 C 4,8 km/h (1 Bft)
18.09.2019 20:15 12,6 C 69 % 1023,4 hPa 0,0 mm 0,6 km/h (0 Bft) O-SO 121 0 min 7,1 C 12,6 C 8,0 km/h (2 Bft)
18.09.2019 20:00 12,7 C 68 % 1023,2 hPa 0,0 mm 0,1 km/h (0 Bft) O 88 0 min 6,9 C 12,7 C 8,0 km/h (2 Bft)
18.09.2019 19:45 12,9 C 66 % 1022,9 hPa 0,0 mm 0,4 km/h (0 Bft) O 99 0 min 6,7 C 12,9 C 4,8 km/h (1 Bft)
18.09.2019 19:30 13,3 C 64 % 1022,8 hPa 0,0 mm 1,6 km/h (1 Bft) O 90 0 min 6,6 C 13,3 C 16,1 km/h (3 Bft)
18.09.2019 19:15 13,6 C 62 % 1022,9 hPa 0,0 mm 5,7 km/h (1 Bft) O-SO 109 15 min 6,5 C 13,6 C 19,3 km/h (3 Bft)
18.09.2019 19:00 13,8 C 61 % 1022,8 hPa 0,0 mm 11,2 km/h (2 Bft) O 86 0 min 6,4 C 13,8 C 27,4 km/h (4 Bft)
18.09.2019 18:45 14,2 C 58 % 1022,6 hPa 0,0 mm 8,1 km/h (2 Bft) O-NO 76 0 min 6,1 C 14,2 C 24,1 km/h (4 Bft)
18.09.2019 18:30 14,3 C 57 % 1022,5 hPa 0,0 mm 5,4 km/h (1 Bft) O 93 0 min 5,9 C 14,3 C 16,1 km/h (3 Bft)
18.09.2019 18:15 14,5 C 57 % 1022,4 hPa 0,0 mm 9,1 km/h (2 Bft) O-SO 115 0 min 6,1 C 14,5 C 27,4 km/h (4 Bft)
18.09.2019 18:00 14,8 C 54 % 1022,5 hPa 0,0 mm 6,4 km/h (2 Bft) O 96 0 min 5,6 C 14,8 C 20,9 km/h (4 Bft)
18.09.2019 17:45 14,5 C 55 % 1022,4 hPa 0,0 mm 8,7 km/h (2 Bft) O 82 15 min 5,6 C 14,5 C 22,5 km/h (4 Bft)
18.09.2019 17:30 14,7 C 53 % 1022,4 hPa 0,0 mm 15,0 km/h (3 Bft) SO 137 0 min 5,2 C 14,7 C 27,4 km/h (4 Bft)
18.09.2019 17:15 15,4 C 50 % 1022,5 hPa 0,0 mm 7,6 km/h (2 Bft) O-SO 111 0 min 5,0 C 15,4 C 25,7 km/h (4 Bft)
18.09.2019 17:00 15,3 C 51 % 1022,4 hPa 0,0 mm 9,6 km/h (2 Bft) O-SO 123 0 min 5,2 C 15,3 C 24,1 km/h (4 Bft)
18.09.2019 16:45 14,9 C 51 % 1022,5 hPa 0,0 mm 12,5 km/h (3 Bft) O-SO 123 0 min 4,9 C 14,9 C 33,8 km/h (5 Bft)
18.09.2019 16:30 15,2 C 52 % 1022,4 hPa 0,0 mm 7,2 km/h (2 Bft) O 91 0 min 5,4 C 15,2 C 24,1 km/h (4 Bft)
18.09.2019 16:15 15,2 C 53 % 1022,6 hPa 0,0 mm 7,4 km/h (2 Bft) O-NO 78 15 min 5,7 C 15,2 C 20,9 km/h (4 Bft)
18.09.2019 16:00 14,7 C 55 % 1022,7 hPa 0,0 mm 6,3 km/h (2 Bft) O-SO 102 0 min 5,8 C 14,7 C 17,7 km/h (3 Bft)
_ Min-Zeit 06:45 14:45 16:30 - 21:45 - - - 06:45 06:45 21:45
Minimum _ 3,4 C 46 % 1022,4 hPa - 0,0 km/h (0 Bft) - - - 2,2 C 3,4 C 0,0 km/h (0 Bft)
_ Max-Zeit 17:15 08:15 11:00 16:00 17:30 - - 16:15 11:00 17:15 16:45
Maximum _ 15,6 C 94 % 1027,9 hPa 0,0 mm 15,0 km/h
SO (3 Bft)
- - 15 min 7,3 C 15,4 C 33,8 km/h
O (5 Bft)
Durchschnitt _ 10,3 C 72 % 1025,2 hPa #0,0 mm 2,6 km/h (1 Bft) O-SO - #5:15 h 5,2 C 10,3 C 7,7 km/h (2 Bft)